sensor_id;sensor_type;location;lat;lon;timestamp;P1;durP1;ratioP1;P2;durP2;ratioP2
22282;SDS011;11310;51.528;21.204;2023-03-08T00:02:19;39.90;;;17.25;;
22282;SDS011;11310;51.528;21.204;2023-03-08T00:04:48;44.92;;;20.58;;
22282;SDS011;11310;51.528;21.204;2023-03-08T00:07:17;38.72;;;17.38;;
22282;SDS011;11310;51.528;21.204;2023-03-08T00:09:45;40.72;;;18.42;;
22282;SDS011;11310;51.528;21.204;2023-03-08T00:12:14;46.85;;;20.13;;
22282;SDS011;11310;51.528;21.204;2023-03-08T00:14:45;43.75;;;20.50;;
22282;SDS011;11310;51.528;21.204;2023-03-08T00:17:13;40.70;;;16.58;;
22282;SDS011;11310;51.528;21.204;2023-03-08T00:19:44;39.30;;;17.27;;
22282;SDS011;11310;51.528;21.204;2023-03-08T00:22:12;40.83;;;17.63;;
22282;SDS011;11310;51.528;21.204;2023-03-08T00:24:41;39.58;;;17.00;;
22282;SDS011;11310;51.528;21.204;2023-03-08T00:27:09;38.75;;;16.27;;
22282;SDS011;11310;51.528;21.204;2023-03-08T00:29:38;42.28;;;18.48;;
22282;SDS011;11310;51.528;21.204;2023-03-08T00:32:07;38.40;;;17.05;;
22282;SDS011;11310;51.528;21.204;2023-03-08T00:34:36;46.30;;;21.48;;
22282;SDS011;11310;51.528;21.204;2023-03-08T00:37:07;42.08;;;19.20;;
22282;SDS011;11310;51.528;21.204;2023-03-08T00:39:35;41.55;;;17.98;;
22282;SDS011;11310;51.528;21.204;2023-03-08T00:42:04;43.60;;;19.42;;
22282;SDS011;11310;51.528;21.204;2023-03-08T00:44:32;31.80;;;15.25;;
22282;SDS011;11310;51.528;21.204;2023-03-08T00:47:01;37.75;;;17.77;;
22282;SDS011;11310;51.528;21.204;2023-03-08T00:49:29;31.65;;;15.23;;
22282;SDS011;11310;51.528;21.204;2023-03-08T00:51:58;41.33;;;20.67;;
22282;SDS011;11310;51.528;21.204;2023-03-08T00:54:29;32.03;;;14.82;;
22282;SDS011;11310;51.528;21.204;2023-03-08T00:56:58;44.58;;;20.75;;
22282;SDS011;11310;51.528;21.204;2023-03-08T00:59:26;35.42;;;16.60;;
22282;SDS011;11310;51.528;21.204;2023-03-08T01:01:57;41.92;;;17.55;;
22282;SDS011;11310;51.528;21.204;2023-03-08T01:04:27;39.60;;;17.90;;
22282;SDS011;11310;51.528;21.204;2023-03-08T01:06:56;38.35;;;19.15;;
22282;SDS011;11310;51.528;21.204;2023-03-08T01:09:25;37.55;;;18.30;;
22282;SDS011;11310;51.528;21.204;2023-03-08T01:11:54;43.78;;;18.45;;
22282;SDS011;11310;51.528;21.204;2023-03-08T01:14:23;40.35;;;17.98;;
22282;SDS011;11310;51.528;21.204;2023-03-08T01:16:51;38.25;;;18.42;;
22282;SDS011;11310;51.528;21.204;2023-03-08T01:19:20;37.50;;;17.77;;
22282;SDS011;11310;51.528;21.204;2023-03-08T01:21:49;40.60;;;19.35;;
22282;SDS011;11310;51.528;21.204;2023-03-08T01:24:17;30.05;;;15.02;;
22282;SDS011;11310;51.528;21.204;2023-03-08T01:26:47;42.47;;;19.58;;
22282;SDS011;11310;51.528;21.204;2023-03-08T01:29:19;30.67;;;15.10;;
22282;SDS011;11310;51.528;21.204;2023-03-08T01:31:48;42.22;;;19.23;;
22282;SDS011;11310;51.528;21.204;2023-03-08T01:34:17;32.60;;;15.00;;
22282;SDS011;11310;51.528;21.204;2023-03-08T01:36:47;53.85;;;22.25;;
22282;SDS011;11310;51.528;21.204;2023-03-08T01:39:16;36.58;;;15.40;;
22282;SDS011;11310;51.528;21.204;2023-03-08T01:41:45;45.20;;;18.23;;
22282;SDS011;11310;51.528;21.204;2023-03-08T01:44:14;26.55;;;10.02;;
22282;SDS011;11310;51.528;21.204;2023-03-08T01:46:46;23.75;;;8.48;;
22282;SDS011;11310;51.528;21.204;2023-03-08T01:49:29;17.73;;;6.47;;
22282;SDS011;11310;51.528;21.204;2023-03-08T01:52:05;15.80;;;9.05;;
22282;SDS011;11310;51.528;21.204;2023-03-08T01:54:37;11.18;;;6.32;;
22282;SDS011;11310;51.528;21.204;2023-03-08T01:57:10;16.02;;;8.98;;
22282;SDS011;11310;51.528;21.204;2023-03-08T01:59:43;5.65;;;2.58;;
22282;SDS011;11310;51.528;21.204;2023-03-08T02:02:17;5.65;;;3.92;;
22282;SDS011;11310;51.528;21.204;2023-03-08T02:04:51;6.03;;;3.33;;
22282;SDS011;11310;51.528;21.204;2023-03-08T02:07:20;4.28;;;3.47;;
22282;SDS011;11310;51.528;21.204;2023-03-08T02:09:49;3.95;;;2.78;;
22282;SDS011;11310;51.528;21.204;2023-03-08T02:12:18;5.10;;;3.55;;
22282;SDS011;11310;51.528;21.204;2023-03-08T02:14:50;9.82;;;5.65;;
22282;SDS011;11310;51.528;21.204;2023-03-08T02:17:22;2.38;;;1.50;;
22282;SDS011;11310;51.528;21.204;2023-03-08T02:19:53;3.17;;;2.47;;
22282;SDS011;11310;51.528;21.204;2023-03-08T02:22:25;3.97;;;2.13;;
22282;SDS011;11310;51.528;21.204;2023-03-08T02:24:55;10.15;;;5.88;;
22282;SDS011;11310;51.528;21.204;2023-03-08T02:27:24;5.55;;;2.22;;
22282;SDS011;11310;51.528;21.204;2023-03-08T02:29:54;5.68;;;3.00;;
22282;SDS011;11310;51.528;21.204;2023-03-08T02:32:22;4.05;;;2.60;;
22282;SDS011;11310;51.528;21.204;2023-03-08T02:34:52;4.07;;;3.17;;
22282;SDS011;11310;51.528;21.204;2023-03-08T02:37:20;4.00;;;2.65;;
22282;SDS011;11310;51.528;21.204;2023-03-08T02:39:48;3.40;;;2.00;;
22282;SDS011;11310;51.528;21.204;2023-03-08T02:42:18;2.90;;;1.88;;
22282;SDS011;11310;51.528;21.204;2023-03-08T02:44:47;5.00;;;2.60;;
22282;SDS011;11310;51.528;21.204;2023-03-08T02:47:15;3.40;;;2.08;;
22282;SDS011;11310;51.528;21.204;2023-03-08T02:49:46;4.35;;;2.25;;
22282;SDS011;11310;51.528;21.204;2023-03-08T02:52:17;3.97;;;1.67;;
22282;SDS011;11310;51.528;21.204;2023-03-08T02:54:45;4.82;;;2.10;;
22282;SDS011;11310;51.528;21.204;2023-03-08T02:57:14;4.43;;;2.42;;
22282;SDS011;11310;51.528;21.204;2023-03-08T02:59:45;3.38;;;1.85;;
22282;SDS011;11310;51.528;21.204;2023-03-08T03:02:15;4.10;;;1.92;;
22282;SDS011;11310;51.528;21.204;2023-03-08T03:04:44;3.78;;;2.30;;
22282;SDS011;11310;51.528;21.204;2023-03-08T03:07:13;5.75;;;2.60;;
22282;SDS011;11310;51.528;21.204;2023-03-08T03:09:41;4.78;;;1.90;;
22282;SDS011;11310;51.528;21.204;2023-03-08T03:12:10;4.30;;;2.40;;
22282;SDS011;11310;51.528;21.204;2023-03-08T03:14:40;6.40;;;2.53;;
22282;SDS011;11310;51.528;21.204;2023-03-08T03:17:11;5.63;;;2.85;;
22282;SDS011;11310;51.528;21.204;2023-03-08T03:19:39;5.68;;;3.83;;
22282;SDS011;11310;51.528;21.204;2023-03-08T03:22:08;5.07;;;3.78;;
22282;SDS011;11310;51.528;21.204;2023-03-08T03:24:36;5.43;;;3.25;;
22282;SDS011;11310;51.528;21.204;2023-03-08T03:27:06;6.38;;;4.30;;
22282;SDS011;11310;51.528;21.204;2023-03-08T03:29:37;3.88;;;2.85;;
22282;SDS011;11310;51.528;21.204;2023-03-08T03:32:14;3.70;;;2.95;;
22282;SDS011;11310;51.528;21.204;2023-03-08T03:34:42;4.40;;;2.78;;
22282;SDS011;11310;51.528;21.204;2023-03-08T03:37:12;4.35;;;2.65;;
22282;SDS011;11310;51.528;21.204;2023-03-08T03:39:40;5.00;;;2.63;;
22282;SDS011;11310;51.528;21.204;2023-03-08T03:42:12;5.10;;;3.15;;
22282;SDS011;11310;51.528;21.204;2023-03-08T03:44:49;5.32;;;3.17;;
22282;SDS011;11310;51.528;21.204;2023-03-08T03:47:21;2.85;;;2.08;;
22282;SDS011;11310;51.528;21.204;2023-03-08T03:49:54;3.78;;;2.05;;
22282;SDS011;11310;51.528;21.204;2023-03-08T03:52:25;4.78;;;2.38;;
22282;SDS011;11310;51.528;21.204;2023-03-08T03:55:00;4.00;;;1.95;;
22282;SDS011;11310;51.528;21.204;2023-03-08T03:57:29;3.78;;;1.98;;
22282;SDS011;11310;51.528;21.204;2023-03-08T03:59:58;2.88;;;1.65;;
22282;SDS011;11310;51.528;21.204;2023-03-08T04:02:28;3.13;;;1.55;;
22282;SDS011;11310;51.528;21.204;2023-03-08T04:04:58;2.65;;;1.50;;
22282;SDS011;11310;51.528;21.204;2023-03-08T04:07:30;1.63;;;1.20;;
22282;SDS011;11310;51.528;21.204;2023-03-08T04:10:00;1.77;;;1.15;;
22282;SDS011;11310;51.528;21.204;2023-03-08T04:12:30;2.35;;;1.42;;
22282;SDS011;11310;51.528;21.204;2023-03-08T04:14:58;2.20;;;1.15;;
22282;SDS011;11310;51.528;21.204;2023-03-08T04:17:31;2.80;;;1.95;;
22282;SDS011;11310;51.528;21.204;2023-03-08T04:20:00;3.38;;;1.80;;
22282;SDS011;11310;51.528;21.204;2023-03-08T04:22:33;2.05;;;1.40;;
22282;SDS011;11310;51.528;21.204;2023-03-08T04:25:10;2.30;;;1.15;;
22282;SDS011;11310;51.528;21.204;2023-03-08T04:27:47;2.75;;;1.30;;
22282;SDS011;11310;51.528;21.204;2023-03-08T04:30:19;2.03;;;1.15;;
22282;SDS011;11310;51.528;21.204;2023-03-08T04:32:49;2.05;;;1.38;;
22282;SDS011;11310;51.528;21.204;2023-03-08T04:35:20;1.85;;;1.33;;
22282;SDS011;11310;51.528;21.204;2023-03-08T04:37:51;1.35;;;1.23;;
22282;SDS011;11310;51.528;21.204;2023-03-08T04:40:23;3.75;;;1.70;;
22282;SDS011;11310;51.528;21.204;2023-03-08T04:42:56;4.32;;;1.33;;
22282;SDS011;11310;51.528;21.204;2023-03-08T04:45:36;3.40;;;1.23;;
22282;SDS011;11310;51.528;21.204;2023-03-08T04:48:11;3.25;;;1.48;;
22282;SDS011;11310;51.528;21.204;2023-03-08T04:50:39;2.75;;;1.25;;
22282;SDS011;11310;51.528;21.204;2023-03-08T04:53:08;3.17;;;1.50;;
22282;SDS011;11310;51.528;21.204;2023-03-08T04:55:37;3.25;;;1.50;;
22282;SDS011;11310;51.528;21.204;2023-03-08T04:58:06;2.72;;;1.58;;
22282;SDS011;11310;51.528;21.204;2023-03-08T05:00:36;2.92;;;1.70;;
22282;SDS011;11310;51.528;21.204;2023-03-08T05:03:07;3.53;;;1.73;;
22282;SDS011;11310;51.528;21.204;2023-03-08T05:05:37;3.83;;;1.70;;
22282;SDS011;11310;51.528;21.204;2023-03-08T05:08:12;3.08;;;1.80;;
22282;SDS011;11310;51.528;21.204;2023-03-08T05:10:45;3.13;;;1.65;;
22282;SDS011;11310;51.528;21.204;2023-03-08T05:13:15;4.57;;;2.20;;
22282;SDS011;11310;51.528;21.204;2023-03-08T05:15:45;4.15;;;2.17;;
22282;SDS011;11310;51.528;21.204;2023-03-08T05:18:14;5.13;;;2.38;;
22282;SDS011;11310;51.528;21.204;2023-03-08T05:20:44;5.35;;;2.30;;
22282;SDS011;11310;51.528;21.204;2023-03-08T05:23:21;4.57;;;2.50;;
22282;SDS011;11310;51.528;21.204;2023-03-08T05:25:54;5.50;;;2.15;;
22282;SDS011;11310;51.528;21.204;2023-03-08T05:31:02;7.45;;;2.70;;
22282;SDS011;11310;51.528;21.204;2023-03-08T05:33:35;8.02;;;2.83;;
22282;SDS011;11310;51.528;21.204;2023-03-08T05:36:06;5.53;;;2.50;;
22282;SDS011;11310;51.528;21.204;2023-03-08T05:38:37;8.05;;;3.17;;
22282;SDS011;11310;51.528;21.204;2023-03-08T05:41:10;7.93;;;2.95;;
22282;SDS011;11310;51.528;21.204;2023-03-08T05:43:41;6.95;;;3.28;;
22282;SDS011;11310;51.528;21.204;2023-03-08T05:46:11;9.50;;;3.38;;
22282;SDS011;11310;51.528;21.204;2023-03-08T05:51:14;6.93;;;3.17;;
22282;SDS011;11310;51.528;21.204;2023-03-08T05:53:45;8.55;;;3.22;;
22282;SDS011;11310;51.528;21.204;2023-03-08T05:56:16;5.57;;;3.33;;
22282;SDS011;11310;51.528;21.204;2023-03-08T05:58:52;6.00;;;2.70;;
22282;SDS011;11310;51.528;21.204;2023-03-08T06:01:25;6.47;;;3.03;;
22282;SDS011;11310;51.528;21.204;2023-03-08T06:04:03;6.13;;;3.00;;
22282;SDS011;11310;51.528;21.204;2023-03-08T06:06:37;8.15;;;3.13;;
22282;SDS011;11310;51.528;21.204;2023-03-08T06:09:07;6.00;;;2.95;;
22282;SDS011;11310;51.528;21.204;2023-03-08T06:11:38;8.23;;;3.50;;
22282;SDS011;11310;51.528;21.204;2023-03-08T06:14:08;8.93;;;3.47;;
22282;SDS011;11310;51.528;21.204;2023-03-08T06:16:39;7.88;;;3.58;;
22282;SDS011;11310;51.528;21.204;2023-03-08T06:19:08;6.40;;;3.10;;
22282;SDS011;11310;51.528;21.204;2023-03-08T06:21:39;7.95;;;2.90;;
22282;SDS011;11310;51.528;21.204;2023-03-08T06:24:08;6.00;;;2.90;;
22282;SDS011;11310;51.528;21.204;2023-03-08T06:26:36;5.18;;;2.83;;
22282;SDS011;11310;51.528;21.204;2023-03-08T06:29:05;6.25;;;3.05;;
22282;SDS011;11310;51.528;21.204;2023-03-08T06:31:33;6.97;;;2.78;;
22282;SDS011;11310;51.528;21.204;2023-03-08T06:34:04;7.35;;;3.15;;
22282;SDS011;11310;51.528;21.204;2023-03-08T06:36:33;7.07;;;3.00;;
22282;SDS011;11310;51.528;21.204;2023-03-08T06:39:03;6.47;;;3.17;;
22282;SDS011;11310;51.528;21.204;2023-03-08T06:41:35;8.82;;;3.50;;
22282;SDS011;11310;51.528;21.204;2023-03-08T06:44:06;11.32;;;4.00;;
22282;SDS011;11310;51.528;21.204;2023-03-08T06:46:34;10.95;;;4.15;;
22282;SDS011;11310;51.528;21.204;2023-03-08T06:49:03;9.13;;;4.40;;
22282;SDS011;11310;51.528;21.204;2023-03-08T06:51:35;8.07;;;3.83;;
22282;SDS011;11310;51.528;21.204;2023-03-08T06:54:05;8.10;;;4.30;;
22282;SDS011;11310;51.528;21.204;2023-03-08T06:56:34;8.90;;;4.07;;
22282;SDS011;11310;51.528;21.204;2023-03-08T06:59:02;7.05;;;3.80;;
22282;SDS011;11310;51.528;21.204;2023-03-08T07:01:30;9.05;;;3.80;;
22282;SDS011;11310;51.528;21.204;2023-03-08T07:04:00;8.95;;;4.03;;
22282;SDS011;11310;51.528;21.204;2023-03-08T07:06:28;8.30;;;3.50;;
22282;SDS011;11310;51.528;21.204;2023-03-08T07:08:57;8.98;;;3.30;;
22282;SDS011;11310;51.528;21.204;2023-03-08T07:11:27;7.07;;;3.50;;
22282;SDS011;11310;51.528;21.204;2023-03-08T07:13:57;6.72;;;3.38;;
22282;SDS011;11310;51.528;21.204;2023-03-08T07:16:26;7.18;;;3.17;;
22282;SDS011;11310;51.528;21.204;2023-03-08T07:18:55;7.63;;;3.38;;
22282;SDS011;11310;51.528;21.204;2023-03-08T07:21:23;8.00;;;3.20;;
22282;SDS011;11310;51.528;21.204;2023-03-08T07:23:52;7.60;;;3.50;;
22282;SDS011;11310;51.528;21.204;2023-03-08T07:26:20;5.88;;;3.22;;
22282;SDS011;11310;51.528;21.204;2023-03-08T07:28:50;7.90;;;3.97;;
22282;SDS011;11310;51.528;21.204;2023-03-08T07:31:19;7.55;;;3.90;;
22282;SDS011;11310;51.528;21.204;2023-03-08T07:33:48;7.43;;;3.60;;
22282;SDS011;11310;51.528;21.204;2023-03-08T07:36:16;7.35;;;4.10;;
22282;SDS011;11310;51.528;21.204;2023-03-08T07:38:45;6.50;;;3.40;;
22282;SDS011;11310;51.528;21.204;2023-03-08T07:41:13;7.57;;;3.78;;
22282;SDS011;11310;51.528;21.204;2023-03-08T07:43:42;10.38;;;4.35;;
22282;SDS011;11310;51.528;21.204;2023-03-08T07:46:18;8.20;;;4.13;;
22282;SDS011;11310;51.528;21.204;2023-03-08T07:48:46;7.60;;;3.90;;
22282;SDS011;11310;51.528;21.204;2023-03-08T07:51:15;9.52;;;4.00;;
22282;SDS011;11310;51.528;21.204;2023-03-08T07:53:44;9.82;;;4.13;;
22282;SDS011;11310;51.528;21.204;2023-03-08T07:56:13;8.43;;;4.65;;
22282;SDS011;11310;51.528;21.204;2023-03-08T07:58:41;7.90;;;3.95;;
22282;SDS011;11310;51.528;21.204;2023-03-08T08:01:10;8.40;;;4.22;;
22282;SDS011;11310;51.528;21.204;2023-03-08T08:03:45;10.75;;;4.40;;
22282;SDS011;11310;51.528;21.204;2023-03-08T08:06:13;9.18;;;4.15;;
22282;SDS011;11310;51.528;21.204;2023-03-08T08:08:47;10.32;;;4.78;;
22282;SDS011;11310;51.528;21.204;2023-03-08T08:11:16;7.55;;;4.32;;
22282;SDS011;11310;51.528;21.204;2023-03-08T08:13:46;10.95;;;4.40;;
22282;SDS011;11310;51.528;21.204;2023-03-08T08:16:16;9.55;;;4.15;;
22282;SDS011;11310;51.528;21.204;2023-03-08T08:18:47;7.57;;;3.88;;
22282;SDS011;11310;51.528;21.204;2023-03-08T08:21:19;9.23;;;4.03;;
22282;SDS011;11310;51.528;21.204;2023-03-08T08:23:49;7.80;;;3.83;;
22282;SDS011;11310;51.528;21.204;2023-03-08T08:26:20;13.40;;;4.55;;
22282;SDS011;11310;51.528;21.204;2023-03-08T08:28:50;10.70;;;4.60;;
22282;SDS011;11310;51.528;21.204;2023-03-08T08:31:20;8.38;;;4.40;;
22282;SDS011;11310;51.528;21.204;2023-03-08T08:33:52;11.18;;;4.63;;
22282;SDS011;11310;51.528;21.204;2023-03-08T08:36:21;8.77;;;4.40;;
22282;SDS011;11310;51.528;21.204;2023-03-08T08:38:51;10.15;;;4.53;;
22282;SDS011;11310;51.528;21.204;2023-03-08T08:41:20;10.80;;;4.43;;
22282;SDS011;11310;51.528;21.204;2023-03-08T08:43:51;10.88;;;4.80;;
22282;SDS011;11310;51.528;21.204;2023-03-08T08:46:22;9.35;;;4.80;;
22282;SDS011;11310;51.528;21.204;2023-03-08T08:48:53;12.07;;;5.18;;
22282;SDS011;11310;51.528;21.204;2023-03-08T08:51:22;10.85;;;3.67;;
22282;SDS011;11310;51.528;21.204;2023-03-08T08:53:52;7.78;;;4.03;;
22282;SDS011;11310;51.528;21.204;2023-03-08T08:56:21;7.78;;;3.90;;
22282;SDS011;11310;51.528;21.204;2023-03-08T08:58:56;7.88;;;4.15;;
22282;SDS011;11310;51.528;21.204;2023-03-08T09:01:28;7.57;;;3.53;;
22282;SDS011;11310;51.528;21.204;2023-03-08T09:04:00;6.97;;;3.65;;
22282;SDS011;11310;51.528;21.204;2023-03-08T09:06:29;9.48;;;4.07;;
22282;SDS011;11310;51.528;21.204;2023-03-08T09:08:59;9.38;;;3.90;;
22282;SDS011;11310;51.528;21.204;2023-03-08T09:11:27;9.48;;;3.55;;
22282;SDS011;11310;51.528;21.204;2023-03-08T09:13:56;8.05;;;3.72;;
22282;SDS011;11310;51.528;21.204;2023-03-08T09:16:25;10.05;;;3.55;;
22282;SDS011;11310;51.528;21.204;2023-03-08T09:18:54;7.15;;;3.47;;
22282;SDS011;11310;51.528;21.204;2023-03-08T09:21:26;7.05;;;3.70;;
22282;SDS011;11310;51.528;21.204;2023-03-08T09:23:57;10.65;;;3.80;;
22282;SDS011;11310;51.528;21.204;2023-03-08T09:26:28;9.35;;;4.20;;
22282;SDS011;11310;51.528;21.204;2023-03-08T09:28:57;8.07;;;3.85;;
22282;SDS011;11310;51.528;21.204;2023-03-08T09:31:31;8.50;;;3.20;;
22282;SDS011;11310;51.528;21.204;2023-03-08T09:34:00;8.00;;;3.67;;
22282;SDS011;11310;51.528;21.204;2023-03-08T09:36:36;7.50;;;3.67;;
22282;SDS011;11310;51.528;21.204;2023-03-08T09:39:06;9.73;;;3.35;;
22282;SDS011;11310;51.528;21.204;2023-03-08T09:41:46;7.97;;;3.58;;
22282;SDS011;11310;51.528;21.204;2023-03-08T09:44:19;5.82;;;3.03;;
22282;SDS011;11310;51.528;21.204;2023-03-08T09:47:12;5.70;;;3.13;;
22282;SDS011;11310;51.528;21.204;2023-03-08T09:49:52;7.93;;;3.40;;
22282;SDS011;11310;51.528;21.204;2023-03-08T09:52:27;5.63;;;2.75;;
22282;SDS011;11310;51.528;21.204;2023-03-08T09:55:04;5.22;;;2.70;;
22282;SDS011;11310;51.528;21.204;2023-03-08T09:57:40;7.25;;;2.47;;
22282;SDS011;11310;51.528;21.204;2023-03-08T10:00:18;5.93;;;2.65;;
22282;SDS011;11310;51.528;21.204;2023-03-08T10:02:53;7.60;;;3.00;;
22282;SDS011;11310;51.528;21.204;2023-03-08T10:05:32;7.30;;;2.88;;
22282;SDS011;11310;51.528;21.204;2023-03-08T10:08:07;6.55;;;2.75;;
22282;SDS011;11310;51.528;21.204;2023-03-08T10:10:46;10.40;;;2.50;;
22282;SDS011;11310;51.528;21.204;2023-03-08T10:13:29;5.72;;;2.30;;
22282;SDS011;11310;51.528;21.204;2023-03-08T10:16:03;5.60;;;2.25;;
22282;SDS011;11310;51.528;21.204;2023-03-08T10:18:39;4.65;;;2.22;;
22282;SDS011;11310;51.528;21.204;2023-03-08T10:21:12;5.75;;;2.03;;
22282;SDS011;11310;51.528;21.204;2023-03-08T10:23:46;8.48;;;2.47;;
22282;SDS011;11310;51.528;21.204;2023-03-08T10:26:15;6.72;;;2.15;;
22282;SDS011;11310;51.528;21.204;2023-03-08T10:28:46;8.17;;;2.80;;
22282;SDS011;11310;51.528;21.204;2023-03-08T10:31:19;7.45;;;4.72;;
22282;SDS011;11310;51.528;21.204;2023-03-08T10:33:52;18.95;;;7.03;;
22282;SDS011;11310;51.528;21.204;2023-03-08T10:36:27;57.88;;;11.55;;
22282;SDS011;11310;51.528;21.204;2023-03-08T10:38:58;45.92;;;12.05;;
22282;SDS011;11310;51.528;21.204;2023-03-08T10:41:35;29.88;;;8.85;;
22282;SDS011;11310;51.528;21.204;2023-03-08T10:44:09;28.67;;;8.35;;
22282;SDS011;11310;51.528;21.204;2023-03-08T10:46:45;94.15;;;13.75;;
22282;SDS011;11310;51.528;21.204;2023-03-08T10:49:16;44.83;;;9.32;;
22282;SDS011;11310;51.528;21.204;2023-03-08T10:51:55;47.47;;;11.32;;
22282;SDS011;11310;51.528;21.204;2023-03-08T10:54:27;27.92;;;7.78;;
22282;SDS011;11310;51.528;21.204;2023-03-08T10:56:57;36.63;;;12.63;;
22282;SDS011;11310;51.528;21.204;2023-03-08T10:59:28;16.83;;;6.43;;
22282;SDS011;11310;51.528;21.204;2023-03-08T11:04:29;16.77;;;7.00;;
22282;SDS011;11310;51.528;21.204;2023-03-08T11:07:08;26.42;;;9.90;;
22282;SDS011;11310;51.528;21.204;2023-03-08T11:09:38;19.98;;;7.13;;
22282;SDS011;11310;51.528;21.204;2023-03-08T11:12:08;34.50;;;12.07;;
22282;SDS011;11310;51.528;21.204;2023-03-08T11:14:49;21.95;;;8.65;;
22282;SDS011;11310;51.528;21.204;2023-03-08T11:17:20;22.35;;;11.05;;
22282;SDS011;11310;51.528;21.204;2023-03-08T11:19:56;17.58;;;8.77;;
22282;SDS011;11310;51.528;21.204;2023-03-08T11:22:49;9.13;;;4.88;;
22282;SDS011;11310;51.528;21.204;2023-03-08T11:25:35;11.40;;;6.68;;
22282;SDS011;11310;51.528;21.204;2023-03-08T11:28:26;12.73;;;8.30;;
22282;SDS011;11310;51.528;21.204;2023-03-08T11:31:07;16.30;;;8.80;;
22282;SDS011;11310;51.528;21.204;2023-03-08T11:33:45;12.27;;;7.22;;
22282;SDS011;11310;51.528;21.204;2023-03-08T11:36:27;13.68;;;6.85;;
22282;SDS011;11310;51.528;21.204;2023-03-08T11:38:58;19.02;;;8.77;;
22282;SDS011;11310;51.528;21.204;2023-03-08T11:41:40;18.35;;;7.97;;
22282;SDS011;11310;51.528;21.204;2023-03-08T11:44:22;17.60;;;7.45;;
22282;SDS011;11310;51.528;21.204;2023-03-08T11:47:26;23.23;;;8.88;;
22282;SDS011;11310;51.528;21.204;2023-03-08T11:50:06;18.77;;;8.48;;
22282;SDS011;11310;51.528;21.204;2023-03-08T11:52:42;14.18;;;6.68;;
22282;SDS011;11310;51.528;21.204;2023-03-08T11:55:36;13.68;;;6.82;;
22282;SDS011;11310;51.528;21.204;2023-03-08T11:58:16;17.13;;;7.88;;
22282;SDS011;11310;51.528;21.204;2023-03-08T12:00:49;14.15;;;7.93;;
22282;SDS011;11310;51.528;21.204;2023-03-08T12:03:22;12.48;;;6.80;;
22282;SDS011;11310;51.528;21.204;2023-03-08T12:05:54;24.80;;;13.52;;
22282;SDS011;11310;51.528;21.204;2023-03-08T12:08:26;11.63;;;6.13;;
22282;SDS011;11310;51.528;21.204;2023-03-08T12:10:57;14.50;;;8.23;;
22282;SDS011;11310;51.528;21.204;2023-03-08T12:13:33;10.75;;;5.65;;
22282;SDS011;11310;51.528;21.204;2023-03-08T12:16:05;17.27;;;9.05;;
22282;SDS011;11310;51.528;21.204;2023-03-08T12:18:39;12.32;;;6.57;;
22282;SDS011;11310;51.528;21.204;2023-03-08T12:21:17;18.05;;;9.10;;
22282;SDS011;11310;51.528;21.204;2023-03-08T12:23:55;15.25;;;6.63;;
22282;SDS011;11310;51.528;21.204;2023-03-08T12:26:36;13.25;;;7.95;;
22282;SDS011;11310;51.528;21.204;2023-03-08T12:29:12;13.27;;;7.05;;
22282;SDS011;11310;51.528;21.204;2023-03-08T12:31:49;16.05;;;9.23;;
22282;SDS011;11310;51.528;21.204;2023-03-08T12:34:24;10.70;;;6.13;;
22282;SDS011;11310;51.528;21.204;2023-03-08T12:36:56;14.07;;;7.10;;
22282;SDS011;11310;51.528;21.204;2023-03-08T12:39:32;10.98;;;6.03;;
22282;SDS011;11310;51.528;21.204;2023-03-08T12:42:29;12.57;;;6.18;;
22282;SDS011;11310;51.528;21.204;2023-03-08T12:45:12;16.55;;;9.55;;
22282;SDS011;11310;51.528;21.204;2023-03-08T12:47:56;15.45;;;8.65;;
22282;SDS011;11310;51.528;21.204;2023-03-08T12:50:37;10.85;;;5.47;;
22282;SDS011;11310;51.528;21.204;2023-03-08T12:53:21;14.93;;;7.57;;
22282;SDS011;11310;51.528;21.204;2023-03-08T12:55:59;11.77;;;7.68;;
22282;SDS011;11310;51.528;21.204;2023-03-08T12:58:29;9.70;;;4.97;;
22282;SDS011;11310;51.528;21.204;2023-03-08T13:01:02;11.52;;;7.57;;
22282;SDS011;11310;51.528;21.204;2023-03-08T13:03:36;8.45;;;4.80;;
22282;SDS011;11310;51.528;21.204;2023-03-08T13:06:24;12.10;;;5.97;;
22282;SDS011;11310;51.528;21.204;2023-03-08T13:09:12;12.85;;;6.00;;
22282;SDS011;11310;51.528;21.204;2023-03-08T13:11:47;10.35;;;4.88;;
22282;SDS011;11310;51.528;21.204;2023-03-08T13:14:24;8.80;;;5.53;;
22282;SDS011;11310;51.528;21.204;2023-03-08T13:16:55;12.10;;;6.72;;
22282;SDS011;11310;51.528;21.204;2023-03-08T13:19:24;10.55;;;6.10;;
22282;SDS011;11310;51.528;21.204;2023-03-08T13:24:45;12.27;;;6.20;;
22282;SDS011;11310;51.528;21.204;2023-03-08T13:27:22;10.20;;;5.20;;
22282;SDS011;11310;51.528;21.204;2023-03-08T13:30:11;11.05;;;6.03;;
22282;SDS011;11310;51.528;21.204;2023-03-08T13:32:47;10.52;;;6.32;;
22282;SDS011;11310;51.528;21.204;2023-03-08T13:35:17;11.70;;;5.63;;
22282;SDS011;11310;51.528;21.204;2023-03-08T13:37:51;12.60;;;7.55;;
22282;SDS011;11310;51.528;21.204;2023-03-08T13:40:21;15.30;;;6.50;;
22282;SDS011;11310;51.528;21.204;2023-03-08T13:42:53;17.10;;;7.68;;
22282;SDS011;11310;51.528;21.204;2023-03-08T13:45:23;9.40;;;5.78;;
22282;SDS011;11310;51.528;21.204;2023-03-08T13:47:54;13.15;;;8.57;;
22282;SDS011;11310;51.528;21.204;2023-03-08T13:50:27;12.10;;;6.28;;
22282;SDS011;11310;51.528;21.204;2023-03-08T13:52:57;14.07;;;8.45;;
22282;SDS011;11310;51.528;21.204;2023-03-08T13:55:29;11.10;;;5.70;;
22282;SDS011;11310;51.528;21.204;2023-03-08T13:58:01;14.27;;;8.88;;
22282;SDS011;11310;51.528;21.204;2023-03-08T14:00:30;8.25;;;4.07;;
22282;SDS011;11310;51.528;21.204;2023-03-08T14:03:02;8.73;;;4.43;;
22282;SDS011;11310;51.528;21.204;2023-03-08T14:05:38;8.32;;;3.92;;
22282;SDS011;11310;51.528;21.204;2023-03-08T14:08:17;9.30;;;4.40;;
22282;SDS011;11310;51.528;21.204;2023-03-08T14:10:47;10.52;;;4.60;;
22282;SDS011;11310;51.528;21.204;2023-03-08T14:13:22;8.57;;;4.07;;
22282;SDS011;11310;51.528;21.204;2023-03-08T14:15:54;7.90;;;3.65;;
22282;SDS011;11310;51.528;21.204;2023-03-08T14:18:27;9.18;;;4.28;;
22282;SDS011;11310;51.528;21.204;2023-03-08T14:21:03;13.10;;;8.18;;
22282;SDS011;11310;51.528;21.204;2023-03-08T14:23:36;16.10;;;7.90;;
22282;SDS011;11310;51.528;21.204;2023-03-08T14:26:21;19.88;;;14.32;;
22282;SDS011;11310;51.528;21.204;2023-03-08T14:29:10;11.57;;;7.38;;
22282;SDS011;11310;51.528;21.204;2023-03-08T14:31:52;12.15;;;8.23;;
22282;SDS011;11310;51.528;21.204;2023-03-08T14:34:29;10.23;;;6.45;;
22282;SDS011;11310;51.528;21.204;2023-03-08T14:37:03;15.18;;;8.60;;
22282;SDS011;11310;51.528;21.204;2023-03-08T14:39:35;15.52;;;6.30;;
22282;SDS011;11310;51.528;21.204;2023-03-08T14:42:09;12.65;;;7.40;;
22282;SDS011;11310;51.528;21.204;2023-03-08T14:44:48;14.20;;;8.27;;
22282;SDS011;11310;51.528;21.204;2023-03-08T14:47:21;11.73;;;7.03;;
22282;SDS011;11310;51.528;21.204;2023-03-08T14:49:55;16.93;;;10.53;;
22282;SDS011;11310;51.528;21.204;2023-03-08T14:52:28;11.65;;;6.88;;
22282;SDS011;11310;51.528;21.204;2023-03-08T14:54:58;14.68;;;9.23;;
22282;SDS011;11310;51.528;21.204;2023-03-08T14:57:29;12.00;;;7.00;;
22282;SDS011;11310;51.528;21.204;2023-03-08T15:00:03;16.35;;;11.55;;
22282;SDS011;11310;51.528;21.204;2023-03-08T15:02:39;13.15;;;7.15;;
22282;SDS011;11310;51.528;21.204;2023-03-08T15:05:12;13.43;;;8.50;;
22282;SDS011;11310;51.528;21.204;2023-03-08T15:07:54;18.27;;;10.90;;